Time;durP1;ratioP1;P1;durP2;ratioP2;P2;SDS_P1;SDS_P2;PMS_P1;PMS_P2;Temp;Humidity;BMP_temperature;BMP_pressure;BME280_temperature;BME280_humidity;BME280_pressure;Samples;Min_cycle;Max_cycle;Signal;HPM_P1;HPM_P2
2023/01/28 00:01:34;;;;;;;;;;;;;;;17.95;59.71;101988.42;2261100;76;52372;-73
2023/01/28 00:04:36;;;;;;;;;;;;;;;18.03;59.55;101996.09;2320023;76;51576;-74
2023/01/28 00:07:38;;;;;;;;;;;;;;;18.11;59.36;101985.11;2320236;76;52150;-74
2023/01/28 00:10:39;;;;;;;;;;;;;;;18.16;59.23;101989.06;2293050;76;50308;-74
2023/01/28 00:13:41;;;;;;;;;;;;;;;18.18;59.12;101987.56;2291412;77;51765;-73
2023/01/28 00:16:43;;;;;;;;;;;;;;;18.16;59.18;101992.21;2313909;77;50322;-73
2023/01/28 00:19:44;;;;;;;;;;;;;;;18.14;59.23;101990.20;2313834;77;50638;-73
2023/01/28 00:22:47;;;;;;;;;;;;;;;18.10;59.26;101988.30;2313536;77;50618;-73
2023/01/28 00:25:49;;;;;;;;;;;;;;;18.06;59.30;101986.42;2317654;76;53155;-73
2023/01/28 00:28:50;;;;;;;;;;;;;;;18.03;59.27;101992.55;2317811;76;51400;-74
2023/01/28 00:31:52;;;;;;;;;;;;;;;17.99;59.34;102000.04;2313816;77;51441;-73
2023/01/28 00:34:53;;;;;;;;;;;;;;;17.91;59.51;102003.95;2317667;76;50573;-72
2023/01/28 00:37:55;;;;;;;;;;;;;;;17.88;59.63;102001.56;2288793;77;50301;-73
2023/01/28 00:40:59;;;;;;;;;;;;;;;17.91;59.68;102003.11;2265522;76;50685;-73
2023/01/28 00:44:00;;;;;;;;;;;;;;;17.95;59.65;102001.31;2318329;76;49896;-72
2023/01/28 00:47:02;;;;;;;;;;;;;;;18.02;59.55;102003.76;2320185;76;50256;-72
2023/01/28 00:50:03;;;;;;;;;;;;;;;18.08;59.39;101998.81;2261239;76;51226;-72
2023/01/28 00:53:05;;;;;;;;;;;;;;;18.13;59.28;102001.89;2286074;76;51422;-75
2023/01/28 00:56:07;;;;;;;;;;;;;;;18.19;59.14;102011.53;2286218;76;51468;-73
2023/01/28 00:59:09;;;;;;;;;;;;;;;18.19;59.03;102002.66;2320240;76;50442;-73
2023/01/28 01:02:13;;;;;;;;;;;;;;;18.19;58.99;102017.39;2285919;76;51583;-73
2023/01/28 01:05:14;;;;;;;;;;;;;;;18.17;59.04;102014.02;2287130;76;51586;-72
2023/01/28 01:08:16;;;;;;;;;;;;;;;18.12;59.11;102027.84;2311104;76;51421;-74
2023/01/28 01:11:18;;;;;;;;;;;;;;;18.10;59.14;102020.94;2281183;78;51505;-72
2023/01/28 01:14:19;;;;;;;;;;;;;;;18.06;59.19;102023.08;2248275;78;51009;-72
2023/01/28 01:17:21;;;;;;;;;;;;;;;18.01;59.30;102022.67;2248761;78;51513;-74
2023/01/28 01:20:26;;;;;;;;;;;;;;;17.93;59.45;102020.72;2281586;78;50304;-73
2023/01/28 01:23:29;;;;;;;;;;;;;;;17.90;59.66;102020.14;2281050;78;51439;-73
2023/01/28 01:26:30;;;;;;;;;;;;;;;17.90;59.96;102014.29;2248096;78;50803;-73
2023/01/28 01:29:32;;;;;;;;;;;;;;;17.99;59.79;102019.29;2248524;78;51474;-73
2023/01/28 01:32:34;;;;;;;;;;;;;;;18.10;59.51;102027.64;2281042;78;51491;-74
2023/01/28 01:35:36;;;;;;;;;;;;;;;18.12;59.28;102013.11;2281345;78;50737;-72
2023/01/28 01:38:37;;;;;;;;;;;;;;;18.13;59.23;102015.28;2248500;78;52503;-73
2023/01/28 01:41:39;;;;;;;;;;;;;;;18.14;59.19;102014.31;2281149;78;50753;-74
2023/01/28 01:44:57;;;;;;;;;;;;;;;18.10;59.21;102023.12;2281111;78;50746;-73
2023/01/28 01:48:04;;;;;;;;;;;;;;;18.09;59.21;102021.95;2281267;78;50452;-73
2023/01/28 01:51:07;;;;;;;;;;;;;;;18.03;59.32;102022.87;2281463;78;23129;-73
2023/01/28 01:54:09;;;;;;;;;;;;;;;18.00;59.36;102029.00;2281037;78;50788;-73
2023/01/28 01:57:11;;;;;;;;;;;;;;;17.93;59.45;102032.77;2281163;78;51540;-73
2023/01/28 02:00:12;;;;;;;;;;;;;;;17.85;59.67;102031.28;2281233;78;50332;-74
2023/01/28 02:03:14;;;;;;;;;;;;;;;17.82;59.86;102027.56;2248094;78;49578;-74
2023/01/28 02:06:16;;;;;;;;;;;;;;;17.86;59.87;102030.31;2281218;78;50342;-73
2023/01/28 02:09:22;;;;;;;;;;;;;;;17.93;59.86;102029.22;2292991;76;50664;-73
2023/01/28 02:12:24;;;;;;;;;;;;;;;17.98;59.95;102033.18;2293332;76;51456;-74
2023/01/28 02:15:26;;;;;;;;;;;;;;;18.06;59.71;102032.45;2248257;78;52567;-73
2023/01/28 02:18:27;;;;;;;;;;;;;;;18.13;59.52;102035.38;2281241;78;51434;-74
2023/01/28 02:21:30;;;;;;;;;;;;;;;18.16;59.34;102035.95;2281269;78;51459;-73
2023/01/28 02:24:34;;;;;;;;;;;;;;;18.16;59.26;102027.04;2281014;78;51457;-73
2023/01/28 02:27:52;;;;;;;;;;;;;;;18.15;59.25;102031.56;2247958;78;52368;-73
2023/01/28 02:30:55;;;;;;;;;;;;;;;18.12;59.56;102027.00;2231710;78;51652;-73
2023/01/28 02:34:02;;;;;;;;;;;;;;;18.07;59.64;102035.47;2277574;78;50683;-72
2023/01/28 02:37:20;;;;;;;;;;;;;;;18.03;59.61;102027.36;2281121;78;50819;-73
2023/01/28 02:40:22;;;;;;;;;;;;;;;17.99;59.65;102028.16;2258186;78;51316;-72
2023/01/28 02:43:35;;;;;;;;;;;;;;;17.94;59.64;102030.93;2280815;77;50326;-72
2023/01/28 02:49:56;;;;;;;;;;;;;;;17.90;59.88;102035.71;2253577;78;22424;-72
2023/01/28 02:56:30;;;;;;;;;;;;;;;18.02;59.80;102029.70;2281396;78;22305;-73
2023/01/28 02:59:35;;;;;;;;;;;;;;;18.03;59.69;102033.59;2281066;78;50438;-73
2023/01/28 03:02:38;;;;;;;;;;;;;;;18.03;59.62;102029.57;2280861;78;50697;-73
2023/01/28 03:06:05;;;;;;;;;;;;;;;18.03;59.62;102039.41;2248098;78;51617;-73
2023/01/28 03:09:22;;;;;;;;;;;;;;;18.01;59.61;102026.69;2293154;76;22493;-73
2023/01/28 03:39:04;;;;;;;;;;;;;;;17.98;59.76;102039.87;2286984;77;22342;-73
2023/01/28 03:42:07;;;;;;;;;;;;;;;18.05;59.58;102040.95;2302621;77;50425;-74
2023/01/28 03:45:08;;;;;;;;;;;;;;;18.10;59.44;102034.33;2317775;76;52447;-73
2023/01/28 03:48:10;;;;;;;;;;;;;;;18.11;59.38;102040.02;2317912;76;51868;-73
2023/01/28 03:51:12;;;;;;;;;;;;;;;18.10;59.37;102037.01;2313898;77;51669;-73
2023/01/28 03:54:13;;;;;;;;;;;;;;;18.08;59.37;102032.29;2313595;76;52257;-73
2023/01/28 03:57:15;;;;;;;;;;;;;;;18.04;59.43;102036.60;2317826;76;50796;-73
2023/01/28 04:00:19;;;;;;;;;;;;;;;18.02;59.44;102033.72;2291712;77;51155;-73
2023/01/28 04:03:20;;;;;;;;;;;;;;;17.98;59.49;102036.33;2291469;77;51010;-73
2023/01/28 04:06:22;;;;;;;;;;;;;;;17.95;59.54;102033.95;2313859;77;50457;-73
2023/01/28 04:09:24;;;;;;;;;;;;;;;17.86;59.63;102029.48;2294566;76;52363;-72
2023/01/28 04:12:25;;;;;;;;;;;;;;;17.82;59.84;102039.61;2291915;76;50492;-72
2023/01/28 04:15:27;;;;;;;;;;;;;;;17.84;59.93;102034.46;2264633;76;52037;-72
2023/01/28 04:18:28;;;;;;;;;;;;;;;17.91;59.86;102038.76;2281411;78;50636;-72
2023/01/28 04:21:30;;;;;;;;;;;;;;;18.01;59.62;102037.41;2248649;78;52438;-72
2023/01/28 04:24:32;;;;;;;;;;;;;;;18.08;59.42;102034.47;2248602;78;51606;-72
2023/01/28 04:27:33;;;;;;;;;;;;;;;18.11;59.27;102040.02;2281284;78;50420;-72
2023/01/28 04:30:35;;;;;;;;;;;;;;;18.11;59.26;102041.36;2281307;78;50468;-72
2023/01/28 04:33:37;;;;;;;;;;;;;;;18.08;59.19;102038.48;2210941;78;50979;-72
2023/01/28 04:36:38;;;;;;;;;;;;;;;18.05;59.29;102040.12;2281303;78;51562;-73
2023/01/28 04:39:40;;;;;;;;;;;;;;;18.02;59.34;102040.42;2249204;78;51404;-72
2023/01/28 04:42:41;;;;;;;;;;;;;;;17.97;59.30;102040.84;2260548;78;50229;-72
2023/01/28 04:45:43;;;;;;;;;;;;;;;17.95;59.35;102045.50;2262633;78;51058;-72
2023/01/28 04:48:45;;;;;;;;;;;;;;;17.87;59.50;102040.02;2281321;78;51497;-73
2023/01/28 04:51:46;;;;;;;;;;;;;;;17.80;59.71;102035.76;2281356;78;50834;-72
2023/01/28 04:54:48;;;;;;;;;;;;;;;17.82;59.81;102034.26;2280825;78;51498;-73
2023/01/28 04:57:50;;;;;;;;;;;;;;;17.87;59.73;102039.19;2255647;78;52324;-73
2023/01/28 05:00:53;;;;;;;;;;;;;;;17.94;59.62;102041.14;2281340;78;50328;-73
2023/01/28 05:03:54;;;;;;;;;;;;;;;18.02;59.43;102045.27;2281080;78;50311;-72
2023/01/28 05:06:57;;;;;;;;;;;;;;;18.09;59.25;102043.37;2281321;78;50253;-72
2023/01/28 05:09:59;;;;;;;;;;;;;;;18.12;59.13;102050.61;2248259;78;52434;-72
2023/01/28 05:13:00;;;;;;;;;;;;;;;18.10;59.23;102041.03;2298413;76;51445;-72
2023/01/28 05:16:02;;;;;;;;;;;;;;;18.08;59.20;102049.70;2288374;76;50235;-72
2023/01/28 05:19:03;;;;;;;;;;;;;;;18.05;59.22;102057.03;2248496;78;51493;-73
2023/01/28 05:22:05;;;;;;;;;;;;;;;18.01;59.26;102056.98;2281159;78;50226;-72
2023/01/28 05:25:07;;;;;;;;;;;;;;;17.99;59.37;102065.66;2248458;78;51015;-73
2023/01/28 05:28:09;;;;;;;;;;;;;;;17.95;59.42;102067.42;2281152;78;50273;-73
2023/01/28 05:31:10;;;;;;;;;;;;;;;17.91;59.39;102070.89;2248636;78;50430;-73
2023/01/28 05:34:12;;;;;;;;;;;;;;;17.84;59.45;102069.27;2248375;78;49984;-73
2023/01/28 05:37:13;;;;;;;;;;;;;;;17.80;59.71;102067.89;2226403;78;50026;-73
2023/01/28 05:40:16;;;;;;;;;;;;;;;17.85;59.79;102063.41;2250818;78;50104;-73
2023/01/28 05:43:17;;;;;;;;;;;;;;;17.93;59.68;102063.56;2273027;76;51560;-72
2023/01/28 05:46:19;;;;;;;;;;;;;;;17.99;59.50;102066.99;2292553;77;50290;-73
2023/01/28 05:49:21;;;;;;;;;;;;;;;18.06;59.43;102067.27;2319778;76;52384;-73
2023/01/28 05:52:22;;;;;;;;;;;;;;;18.04;59.43;102060.71;2316641;77;50765;-73
2023/01/28 05:55:24;;;;;;;;;;;;;;;18.06;59.32;102060.58;2318443;76;51483;-73
2023/01/28 05:58:29;;;;;;;;;;;;;;;18.04;59.24;102064.73;2314334;77;50320;-73
2023/01/28 06:01:30;;;;;;;;;;;;;;;18.02;59.38;102069.38;2301801;76;22440;-72
2023/01/28 06:04:31;;;;;;;;;;;;;;;18.00;59.51;102065.99;2251676;78;50670;-72
2023/01/28 06:07:33;;;;;;;;;;;;;;;17.98;59.35;102063.98;2248816;78;51553;-72
2023/01/28 06:10:35;;;;;;;;;;;;;;;17.94;59.37;102065.24;2248553;78;49781;-72
2023/01/28 06:13:36;;;;;;;;;;;;;;;17.87;59.28;102056.09;2295012;76;50410;-73
2023/01/28 06:16:38;;;;;;;;;;;;;;;17.80;59.41;102073.70;2314825;76;50400;-73
2023/01/28 06:19:39;;;;;;;;;;;;;;;17.80;59.33;102073.24;2318774;76;50001;-73
2023/01/28 06:22:41;;;;;;;;;;;;;;;17.86;59.08;102069.14;2318628;76;50586;-73
2023/01/28 06:25:43;;;;;;;;;;;;;;;17.93;58.79;102077.42;2318863;76;51166;-73
2023/01/28 06:28:44;;;;;;;;;;;;;;;17.97;58.55;102066.28;2318909;76;49978;-74
2023/01/28 06:31:46;;;;;;;;;;;;;;;18.03;58.34;102068.88;2314730;77;50619;-73
2023/01/28 06:34:48;;;;;;;;;;;;;;;18.04;58.19;102072.77;2314594;77;50698;-73
2023/01/28 06:37:49;;;;;;;;;;;;;;;18.05;58.08;102073.09;2253267;77;51237;-73
2023/01/28 06:40:52;;;;;;;;;;;;;;;18.03;58.01;102074.23;2284834;76;50390;-73
2023/01/28 06:43:53;;;;;;;;;;;;;;;18.01;57.98;102074.90;2263810;76;50800;-73
2023/01/28 06:46:55;;;;;;;;;;;;;;;17.99;57.91;102080.88;2286819;76;51390;-73
2023/01/28 06:49:56;;;;;;;;;;;;;;;17.96;57.87;102076.66;2285419;76;51678;-72
2023/01/28 06:52:58;;;;;;;;;;;;;;;17.93;57.96;102085.45;2300985;76;51514;-72
2023/01/28 06:55:59;;;;;;;;;;;;;;;17.90;57.95;102086.59;2295936;77;51499;-72
2023/01/28 06:59:01;;;;;;;;;;;;;;;17.81;58.21;102082.95;2298837;77;50270;-72
2023/01/28 07:02:03;;;;;;;;;;;;;;;17.76;58.28;102085.18;2285091;76;51144;-72
2023/01/28 07:05:05;;;;;;;;;;;;;;;17.79;58.21;102082.24;2261091;76;50670;-72
2023/01/28 07:08:06;;;;;;;;;;;;;;;17.87;58.05;102083.37;2299873;76;51529;-71
2023/01/28 07:11:08;;;;;;;;;;;;;;;17.94;57.87;102086.66;2295955;77;51310;-72
2023/01/28 07:14:09;;;;;;;;;;;;;;;18.02;57.69;102091.30;2259699;77;52282;-73
2023/01/28 07:17:11;;;;;;;;;;;;;;;18.05;57.51;102087.83;2254068;78;50232;-72
2023/01/28 07:20:14;;;;;;;;;;;;;;;18.05;57.45;102086.99;2288981;76;50332;-73
2023/01/28 07:23:15;;;;;;;;;;;;;;;18.04;57.40;102097.37;2297622;76;50601;-72
2023/01/28 07:26:18;;;;;;;;;;;;;;;18.04;57.39;102100.05;2248009;76;52532;-73
2023/01/28 07:29:20;;;;;;;;;;;;;;;18.01;57.34;102097.66;2300601;76;50315;-73
2023/01/28 07:32:22;;;;;;;;;;;;;;;17.97;57.48;102089.05;2303066;77;50642;-73
2023/01/28 07:35:24;;;;;;;;;;;;;;;17.93;59.01;102094.36;2233666;78;50766;-73
2023/01/28 07:38:25;;;;;;;;;;;;;;;17.92;58.73;102095.33;2229760;78;52488;-73
2023/01/28 07:41:28;;;;;;;;;;;;;;;17.90;58.65;102093.78;2268661;77;51529;-73
2023/01/28 07:44:29;;;;;;;;;;;;;;;17.88;58.73;102096.62;2296621;77;51616;-73
2023/01/28 07:47:31;;;;;;;;;;;;;;;17.90;58.86;102094.63;2249085;78;51405;-72
2023/01/28 07:50:33;;;;;;;;;;;;;;;17.96;58.85;102093.23;2248564;78;51723;-71
2023/01/28 07:53:35;;;;;;;;;;;;;;;18.01;58.65;102103.02;2248622;78;50318;-71
2023/01/28 07:56:37;;;;;;;;;;;;;;;18.01;58.50;102099.00;2281343;78;51466;-71
2023/01/28 07:59:38;;;;;;;;;;;;;;;18.01;58.38;102097.66;2248404;78;53181;-71
2023/01/28 08:02:40;;;;;;;;;;;;;;;18.00;58.33;102094.62;2248241;78;50871;-71
2023/01/28 08:05:49;;;;;;;;;;;;;;;17.96;58.39;102099.42;2248593;78;50412;-72
2023/01/28 08:08:50;;;;;;;;;;;;;;;17.94;58.58;102096.04;2281370;78;51549;-72
2023/01/28 08:11:52;;;;;;;;;;;;;;;17.91;58.61;102098.17;2285002;77;51547;-73
2023/01/28 08:14:54;;;;;;;;;;;;;;;17.87;58.56;102102.95;2307394;76;50171;-72
2023/01/28 08:17:56;;;;;;;;;;;;;;;17.81;58.76;102102.19;2287156;76;51539;-72
2023/01/28 08:20:58;;;;;;;;;;;;;;;17.77;58.78;102116.80;2320649;76;50709;-72
2023/01/28 08:23:59;;;;;;;;;;;;;;;17.75;58.81;102112.95;2320744;76;50378;-72
2023/01/28 08:27:01;;;;;;;;;;;;;;;17.77;58.73;102120.32;2262024;76;51164;-72
2023/01/28 08:30:02;;;;;;;;;;;;;;;17.84;58.47;102116.62;2286981;76;50732;-72
2023/01/28 08:33:04;;;;;;;;;;;;;;;17.91;58.32;102112.40;2320945;76;50630;-73
2023/01/28 08:36:06;;;;;;;;;;;;;;;17.96;58.15;102126.20;2321114;76;50885;-73
2023/01/28 08:39:08;;;;;;;;;;;;;;;18.01;58.03;102126.62;2287014;76;51427;-73
2023/01/28 08:42:09;;;;;;;;;;;;;;;18.03;57.88;102131.35;2279356;76;50748;-72
2023/01/28 08:45:11;;;;;;;;;;;;;;;18.05;57.75;102142.73;2249071;78;51447;-73
2023/01/28 08:48:14;;;;;;;;;;;;;;;18.03;57.72;102139.39;2249229;78;51502;-72
2023/01/28 08:51:16;;;;;;;;;;;;;;;18.00;57.77;102132.95;2248918;78;51745;-74
2023/01/28 08:54:18;;;;;;;;;;;;;;;17.98;57.81;102149.68;2224397;78;52363;-74
2023/01/28 08:57:19;;;;;;;;;;;;;;;18.02;57.72;102136.34;2248874;78;51568;-74
2023/01/28 09:00:21;;;;;;;;;;;;;;;17.97;57.69;102142.61;2282013;78;50386;-74
2023/01/28 09:03:23;;;;;;;;;;;;;;;17.97;57.67;102149.31;2248928;78;51592;-73
2023/01/28 09:06:24;;;;;;;;;;;;;;;17.95;57.66;102145.92;2249091;78;51470;-73
2023/01/28 09:09:26;;;;;;;;;;;;;;;17.91;57.79;102152.56;2249097;78;51443;-73
2023/01/28 09:12:28;;;;;;;;;;;;;;;17.96;57.70;102158.84;2291506;77;51472;-73
2023/01/28 09:15:29;;;;;;;;;;;;;;;18.03;57.61;102151.44;2279937;77;51663;-73
2023/01/28 09:18:31;;;;;;;;;;;;;;;18.04;57.56;102157.63;2318723;76;51703;-73
2023/01/28 09:21:33;;;;;;;;;;;;;;;18.06;57.52;102161.86;2318690;76;51709;-73
2023/01/28 09:24:34;;;;;;;;;;;;;;;18.10;57.39;102165.59;2314625;76;50760;-73
2023/01/28 09:27:36;;;;;;;;;;;;;;;18.10;57.24;102171.78;2318770;76;51711;-73
2023/01/28 09:30:38;;;;;;;;;;;;;;;18.06;57.30;102177.93;2318843;76;51444;-73
2023/01/28 09:33:40;;;;;;;;;;;;;;;18.02;57.33;102177.84;2314508;77;50056;-73
2023/01/28 09:36:41;;;;;;;;;;;;;;;18.01;57.31;102176.17;2314688;77;50624;-73
2023/01/28 09:39:43;;;;;;;;;;;;;;;18.01;57.27;102177.52;2318587;76;51632;-73
2023/01/28 09:42:46;;;;;;;;;;;;;;;18.00;57.27;102181.16;2303670;77;51460;-73
2023/01/28 09:45:48;;;;;;;;;;;;;;;17.94;57.33;102172.36;2302806;77;50837;-73
2023/01/28 09:48:51;;;;;;;;;;;;;;;17.97;57.23;102174.75;2318636;76;50027;-73
2023/01/28 09:51:53;;;;;;;;;;;;;;;17.95;57.23;102187.44;2307766;76;51719;-73
2023/01/28 09:54:55;;;;;;;;;;;;;;;18.00;57.20;102193.21;2303021;76;50441;-73
2023/01/28 09:57:57;;;;;;;;;;;;;;;18.02;57.21;102192.58;2304915;76;50804;-73
2023/01/28 10:01:01;;;;;;;;;;;;;;;18.06;57.13;102185.13;2300974;77;50637;-73
2023/01/28 10:04:10;;;;;;;;;;;;;;;18.08;57.14;102195.68;2264992;77;51585;-73
2023/01/28 10:07:16;;;;;;;;;;;;;;;18.10;56.98;102191.88;2300932;77;51528;-74
2023/01/28 10:10:26;;;;;;;;;;;;;;;18.10;56.94;102181.16;2300940;77;50382;-73
2023/01/28 10:13:29;;;;;;;;;;;;;;;18.05;57.02;102190.95;2293496;76;50250;-73
2023/01/28 10:16:38;;;;;;;;;;;;;;;18.02;57.07;102187.22;2274314;78;51263;-74
2023/01/28 10:19:41;;;;;;;;;;;;;;;17.98;57.13;102191.20;2281992;78;51495;-73
2023/01/28 10:22:50;;;;;;;;;;;;;;;18.00;57.09;102183.84;2280433;78;51465;-73
2023/01/28 10:25:52;;;;;;;;;;;;;;;17.97;57.14;102174.75;2282394;78;51399;-73
2023/01/28 10:28:55;;;;;;;;;;;;;;;17.97;57.19;102177.43;2248937;78;52287;-73
2023/01/28 10:32:01;;;;;;;;;;;;;;;17.95;57.17;102187.44;2281868;78;50794;-72
2023/01/28 10:35:02;;;;;;;;;;;;;;;17.95;57.38;102182.58;2282412;78;51447;-73
2023/01/28 10:38:06;;;;;;;;;;;;;;;17.98;57.36;102175.13;2282478;78;51457;-73
2023/01/28 10:41:09;;;;;;;;;;;;;;;18.00;57.39;102171.78;2249211;78;51740;-74
2023/01/28 10:44:12;;;;;;;;;;;;;;;18.04;57.31;102162.48;2305878;76;50701;-74
2023/01/28 10:47:14;;;;;;;;;;;;;;;18.09;57.19;102166.59;2277194;77;50497;-74
2023/01/28 10:50:18;;;;;;;;;;;;;;;18.14;57.05;102168.34;2282845;78;51562;-74
2023/01/28 10:53:19;;;;;;;;;;;;;;;18.12;57.04;102155.58;2248790;78;52549;-74
2023/01/28 10:56:28;;;;;;;;;;;;;;;18.12;57.04;102160.94;2282891;78;51518;-74
2023/01/28 10:59:31;;;;;;;;;;;;;;;18.08;57.07;102168.89;2282061;76;51612;-74
2023/01/28 11:02:35;;;;;;;;;;;;;;;18.03;57.17;102171.52;2282560;78;51451;-74
2023/01/28 11:05:36;;;;;;;;;;;;;;;18.03;57.14;102165.30;2282813;77;22814;-74
2023/01/28 11:08:40;;;;;;;;;;;;;;;17.99;57.17;102174.12;2255639;76;50625;-74
2023/01/28 11:11:41;;;;;;;;;;;;;;;17.98;57.21;102166.22;2288412;76;50321;-73
2023/01/28 11:14:44;;;;;;;;;;;;;;;17.96;57.16;102161.52;2299409;77;50269;-74
2023/01/28 11:17:47;;;;;;;;;;;;;;;17.89;57.37;102161.23;2265828;76;51706;-74
2023/01/28 11:20:50;;;;;;;;;;;;;;;17.94;57.35;102162.16;2289171;76;51574;-74
2023/01/28 11:24:00;;;;;;;;;;;;;;;17.94;57.45;102164.33;2290408;76;50791;-74
2023/01/28 11:27:03;;;;;;;;;;;;;;;17.96;57.62;102160.19;2301838;77;51607;-73
2023/01/28 11:30:06;;;;;;;;;;;;;;;17.99;57.61;102163.41;2260973;77;51313;-74
2023/01/28 11:33:15;;;;;;;;;;;;;;;18.02;57.59;102155.58;2303906;77;50758;-74
2023/01/28 11:36:21;;;;;;;;;;;;;;;18.04;57.70;102145.08;2304224;76;51469;-74
2023/01/28 11:39:24;;;;;;;;;;;;;;;18.03;57.69;102146.08;2293753;77;50682;-74
2023/01/28 11:42:26;;;;;;;;;;;;;;;18.01;57.77;102144.53;2253090;77;51390;-74
2023/01/28 11:45:32;;;;;;;;;;;;;;;17.97;57.81;102144.45;2309911;77;50663;-73
2023/01/28 11:48:52;;;;;;;;;;;;;;;17.95;57.96;102139.73;2315149;76;51446;-75
2023/01/28 11:52:11;;;;;;;;;;;;;;;17.91;57.99;102136.50;2306227;76;52411;-74
2023/01/28 11:55:18;;;;;;;;;;;;;;;17.85;58.76;102133.03;2293144;76;51571;-75
2023/01/28 11:58:24;;;;;;;;;;;;;;;17.81;58.51;102137.00;2281577;77;50459;-75
2023/01/28 12:01:33;;;;;;;;;;;;;;;17.77;59.11;102124.84;2282356;78;51369;-76
2023/01/28 12:04:46;;;;;;;;;;;;;;;17.76;59.16;102115.97;2293486;76;50784;-75
2023/01/28 12:07:58;;;;;;;;;;;;;;;17.81;58.91;102128.47;2274078;78;52609;-74
2023/01/28 12:11:10;;;;;;;;;;;;;;;17.84;59.02;102130.86;2280246;78;50692;-75
2023/01/28 12:14:23;;;;;;;;;;;;;;;17.87;58.95;102119.02;2298734;77;51458;-74
2023/01/28 12:17:41;;;;;;;;;;;;;;;17.96;58.65;102124.03;2305886;76;51504;-74
2023/01/28 12:20:44;;;;;;;;;;;;;;;17.97;58.74;102123.87;2248211;78;52366;-74
2023/01/28 12:23:51;;;;;;;;;;;;;;;17.96;58.66;102113.31;2281466;78;51658;-74
2023/01/28 12:27:00;;;;;;;;;;;;;;;17.95;58.93;102119.14;2281508;78;51479;-73
2023/01/28 12:30:04;;;;;;;;;;;;;;;17.95;58.95;102115.63;2281647;78;51592;-73
2023/01/28 12:33:07;;;;;;;;;;;;;;;17.93;58.98;102116.25;2281726;78;50737;-74
2023/01/28 12:36:13;;;;;;;;;;;;;;;17.90;59.04;102121.91;2282896;78;51462;-73
2023/01/28 12:39:35;;;;;;;;;;;;;;;17.86;59.06;102121.35;2283779;78;50730;-73
2023/01/28 12:42:37;;;;;;;;;;;;;;;17.84;59.20;102112.11;2296695;76;50791;-75
2023/01/28 12:45:44;;;;;;;;;;;;;;;17.82;59.17;102119.44;2306094;77;50727;-73
2023/01/28 12:48:47;;;;;;;;;;;;;;;17.82;59.21;102115.92;2319110;76;50529;-73
2023/01/28 12:52:07;;;;;;;;;;;;;;;17.86;58.91;102111.14;2292600;76;51515;-73
2023/01/28 12:55:18;;;;;;;;;;;;;;;17.87;58.72;102102.95;2288818;77;50771;-73
2023/01/28 12:58:21;;;;;;;;;;;;;;;17.92;58.71;102104.70;2260662;78;51830;-73
2023/01/28 13:01:30;;;;;;;;;;;;;;;17.99;58.54;102101.81;2291708;76;50759;-74
2023/01/28 13:04:36;;;;;;;;;;;;;;;18.02;58.29;102108.22;2298867;76;50733;-73
2023/01/28 13:07:39;;;;;;;;;;;;;;;18.00;58.17;102108.84;2311389;76;51646;-74
2023/01/28 13:10:41;;;;;;;;;;;;;;;17.97;57.58;102106.46;2309454;76;50794;-74
2023/01/28 13:13:43;;;;;;;;;;;;;;;17.95;57.72;102096.88;2311778;77;50480;-74
2023/01/28 13:16:44;;;;;;;;;;;;;;;17.91;57.70;102086.12;2281479;78;50712;-74
2023/01/28 13:19:46;;;;;;;;;;;;;;;17.86;57.78;102086.55;2248785;78;50275;-74
2023/01/28 13:22:48;;;;;;;;;;;;;;;17.85;57.84;102078.14;2281287;78;50486;-75
2023/01/28 13:25:50;;;;;;;;;;;;;;;17.80;57.93;102070.56;2248580;78;50231;-74
2023/01/28 13:28:52;;;;;;;;;;;;;;;17.80;58.06;102067.02;2281352;78;51526;-73
2023/01/28 13:31:54;;;;;;;;;;;;;;;17.83;58.07;102068.93;2281412;78;51586;-74
2023/01/28 13:34:57;;;;;;;;;;;;;;;17.92;57.97;102067.72;2281187;78;49994;-74
2023/01/28 13:37:59;;;;;;;;;;;;;;;17.99;57.84;102055.44;2261716;77;51751;-74
2023/01/28 13:41:03;;;;;;;;;;;;;;;18.05;57.71;102063.72;2281425;78;52366;-75
2023/01/28 13:44:03;;;;;;;;;;;;;;;18.11;57.64;102064.13;2291962;77;22296;-75
2023/01/28 13:47:11;;;;;;;;;;;;;;;18.12;57.62;102057.80;2248291;78;51301;-74
2023/01/28 13:50:14;;;;;;;;;;;;;;;18.10;57.59;102047.23;2280502;77;22276;-74
2023/01/28 13:53:17;;;;;;;;;;;;;;;18.09;57.66;102060.78;2281399;78;50281;-76
2023/01/28 13:56:24;;;;;;;;;;;;;;;18.03;57.22;102056.35;2281396;77;50290;-73
2023/01/28 13:59:33;;;;;;;;;;;;;;;17.97;56.78;102062.27;2248216;78;51400;-73
2023/01/28 14:02:36;;;;;;;;;;;;;;;17.95;56.93;102062.06;2280857;77;50382;-73
2023/01/28 14:05:51;;;;;;;;;;;;;;;17.92;57.13;102055.66;2281575;78;50442;-73
2023/01/28 14:09:11;;;;;;;;;;;;;;;17.86;57.31;102043.70;2300260;76;50061;-73
2023/01/28 14:12:15;;;;;;;;;;;;;;;17.91;57.67;102044.62;2281110;78;51500;-73
2023/01/28 14:15:30;;;;;;;;;;;;;;;18.08;57.41;102052.38;2294743;77;51798;-74
2023/01/28 14:18:42;;;;;;;;;;;;;;;18.11;57.41;102050.74;2282596;76;50780;-73
2023/01/28 14:21:43;;;;;;;;;;;;;;;18.19;57.30;102047.70;2285408;76;51559;-74
2023/01/28 14:24:45;;;;;;;;;;;;;;;18.22;57.15;102043.89;2272571;76;52354;-73
2023/01/28 14:27:47;;;;;;;;;;;;;;;18.19;57.10;102044.19;2298811;76;50260;-73
2023/01/28 14:30:50;;;;;;;;;;;;;;;18.18;57.03;102028.58;2281210;78;51511;-73
2023/01/28 14:33:51;;;;;;;;;;;;;;;18.12;57.11;102027.00;2296984;77;50316;-74
2023/01/28 14:36:55;;;;;;;;;;;;;;;18.08;57.15;102029.11;2313865;77;50634;-72
2023/01/28 14:39:58;;;;;;;;;;;;;;;18.05;57.16;102035.60;2297340;76;51595;-71
2023/01/28 14:42:59;;;;;;;;;;;;;;;18.03;57.18;102044.30;2291403;77;51591;-72
2023/01/28 14:46:15;;;;;;;;;;;;;;;18.00;57.19;102051.77;2307681;77;51654;-72
2023/01/28 14:49:18;;;;;;;;;;;;;;;17.96;57.24;102057.92;2291667;77;52364;-73
2023/01/28 14:52:28;;;;;;;;;;;;;;;17.97;57.26;102052.90;2313967;76;51593;-73
2023/01/28 14:55:34;;;;;;;;;;;;;;;18.01;57.25;102059.67;2314555;76;51505;-73
2023/01/28 14:58:37;;;;;;;;;;;;;;;18.08;57.11;102061.75;2312678;77;50699;-73
2023/01/28 15:01:40;;;;;;;;;;;;;;;18.15;56.97;102060.19;2275164;76;51182;-73
2023/01/28 15:04:41;;;;;;;;;;;;;;;18.16;56.95;102060.52;2302985;77;50288;-73
2023/01/28 15:07:44;;;;;;;;;;;;;;;18.22;56.80;102054.09;2315076;77;50212;-73
2023/01/28 15:10:45;;;;;;;;;;;;;;;18.27;56.74;102055.01;2293055;77;51454;-73
2023/01/28 15:13:48;;;;;;;;;;;;;;;18.30;56.62;102065.92;2261032;77;52539;-73
2023/01/28 15:16:49;;;;;;;;;;;;;;;18.24;56.67;102062.00;2267514;76;49677;-73
2023/01/28 15:19:52;;;;;;;;;;;;;;;18.22;56.68;102063.48;2312927;76;50648;-73
2023/01/28 15:22:53;;;;;;;;;;;;;;;18.16;56.77;102068.56;2292119;76;50418;-73
2023/01/28 15:25:55;;;;;;;;;;;;;;;18.13;56.82;102056.80;2248750;78;49478;-73
2023/01/28 15:28:56;;;;;;;;;;;;;;;18.09;56.84;102058.94;2292395;76;50400;-73
2023/01/28 15:31:58;;;;;;;;;;;;;;;18.05;56.90;102073.09;2296844;77;50430;-74
2023/01/28 15:35:00;;;;;;;;;;;;;;;18.03;56.87;102060.37;2262916;77;50276;-74
2023/01/28 15:38:01;;;;;;;;;;;;;;;18.00;57.01;102057.12;2248916;78;51766;-73
2023/01/28 15:41:03;;;;;;;;;;;;;;;18.05;57.01;102061.05;2313708;76;51536;-73
2023/01/28 15:44:05;;;;;;;;;;;;;;;18.09;56.98;102068.81;2242497;78;51627;-73
2023/01/28 15:47:17;;;;;;;;;;;;;;;18.14;56.96;102062.53;2283123;77;51419;-73
2023/01/28 15:50:22;;;;;;;;;;;;;;;18.21;56.82;102064.48;2302649;77;51496;-73
2023/01/28 15:53:23;;;;;;;;;;;;;;;18.27;56.75;102071.08;2292442;77;51531;-73
2023/01/28 15:56:28;;;;;;;;;;;;;;;18.33;56.59;102069.14;2314296;77;51495;-73
2023/01/28 15:59:30;;;;;;;;;;;;;;;18.33;56.57;102073.16;2282063;78;51643;-75
2023/01/28 16:02:32;;;;;;;;;;;;;;;18.30;56.67;102077.48;2250580;76;51085;-74
2023/01/28 16:05:38;;;;;;;;;;;;;;;18.23;56.72;102081.23;2273315;78;50645;-75
2023/01/28 16:08:47;;;;;;;;;;;;;;;18.21;56.84;102083.23;2282075;78;51565;-74
2023/01/28 16:11:48;;;;;;;;;;;;;;;18.13;57.03;102087.61;2289770;76;50302;-74
2023/01/28 16:14:52;;;;;;;;;;;;;;;18.09;57.04;102081.71;2273508;76;51170;-74